Time;durP1;ratioP1;P1;durP2;ratioP2;P2;SDS_P1;SDS_P2;PMS_P1;PMS_P2;Temp;Humidity;BMP_temperature;BMP_pressure;BME280_temperature;BME280_humidity;BME280_pressure;Samples;Min_cycle;Max_cycle;Signal;HPM_P1;HPM_P2
2022/09/22 00:01:36;;;;;;;2.38;1.40;;;10.90;95.20;;;;;;4975553;28;20023;-69
2022/09/22 00:04:05;;;;;;;2.55;1.50;;;10.90;95.30;;;;;;4975833;28;20046;-69
2022/09/22 00:06:43;;;;;;;3.35;1.60;;;10.90;95.40;;;;;;4975533;28;20086;-70
2022/09/22 00:09:11;;;;;;;2.25;1.40;;;10.80;95.40;;;;;;4975648;28;20031;-70
2022/09/22 00:11:41;;;;;;;2.03;1.40;;;10.80;95.60;;;;;;4975442;28;20022;-70
2022/09/22 00:14:27;;;;;;;2.38;1.75;;;10.80;95.80;;;;;;4975540;28;20043;-70
2022/09/22 00:17:02;;;;;;;2.72;1.75;;;10.70;96.10;;;;;;4975819;28;20026;-70
2022/09/22 00:19:33;;;;;;;1.50;1.30;;;10.70;96.10;;;;;;4975287;28;20074;-70
2022/09/22 00:21:59;;;;;;;;;;;10.70;96.30;;;;;;4976288;28;20054;-70
2022/09/22 00:24:26;;;;;;;2.58;1.77;;;10.60;96.50;;;;;;4975165;28;20270;-70
2022/09/22 00:26:56;;;;;;;3.10;1.42;;;10.50;97.00;;;;;;4975573;28;20101;-70
2022/09/22 00:29:22;;;;;;;3.58;1.42;;;10.50;97.10;;;;;;4974940;28;20612;-79
2022/09/22 00:31:49;;;;;;;3.05;1.50;;;10.50;97.40;;;;;;4975790;28;20037;-69
2022/09/22 00:34:18;;;;;;;2.67;1.50;;;10.50;97.40;;;;;;4975105;28;20480;-70
2022/09/22 00:36:44;;;;;;;2.55;1.55;;;10.50;97.60;;;;;;4975005;28;20118;-69
2022/09/22 00:39:10;;;;;;;5.85;1.80;;;10.50;97.60;;;;;;4975275;28;20027;-70
2022/09/22 00:41:40;;;;;;;3.03;1.73;;;10.50;97.60;;;;;;4975002;28;20113;-69
2022/09/22 00:44:21;;;;;;;2.78;1.48;;;10.50;97.60;;;;;;4993349;28;20045;-69
2022/09/22 00:46:57;;;;;;;2.67;1.90;;;10.40;97.70;;;;;;4994292;28;20027;-70
2022/09/22 00:49:57;;;;;;;1.80;1.20;;;10.50;97.80;;;;;;4994474;28;20479;-80
2022/09/22 00:52:37;;;;;;;3.78;1.55;;;10.40;97.90;;;;;;4992152;28;20042;-70
2022/09/22 00:55:09;;;;;;;1.30;1.20;;;10.40;97.90;;;;;;4994373;28;20026;-70
2022/09/22 00:57:37;;;;;;;2.67;1.40;;;10.40;98.10;;;;;;4994517;28;20347;-69
2022/09/22 01:00:06;;;;;;;2.33;1.50;;;10.40;98.20;;;;;;4978069;28;20030;-70
2022/09/22 01:02:31;;;;;;;5.88;1.83;;;10.40;98.30;;;;;;4974486;28;20033;-69
2022/09/22 01:04:57;;;;;;;2.00;1.73;;;10.40;98.40;;;;;;4975209;28;20097;-69
2022/09/22 01:07:26;;;;;;;1.67;1.55;;;10.30;98.60;;;;;;4974806;28;20050;-69
2022/09/22 01:09:54;;;;;;;2.17;1.70;;;10.30;98.70;;;;;;4974388;28;20086;-70
2022/09/22 01:12:20;;;;;;;2.65;1.83;;;10.30;98.80;;;;;;4974906;28;20080;-69
2022/09/22 01:14:48;;;;;;;3.13;1.73;;;10.20;99.00;;;;;;4974323;28;20039;-69
2022/09/22 01:17:36;;;;;;;4.53;1.67;;;10.20;99.20;;;;;;4974742;28;20031;-70
2022/09/22 01:20:08;;;;;;;1.60;1.48;;;10.20;99.30;;;;;;4977070;28;20038;-70
2022/09/22 01:23:11;;;;;;;1.42;1.33;;;10.10;99.50;;;;;;4974116;28;20101;-70
2022/09/22 01:26:14;;;;;;;2.78;1.60;;;10.10;99.60;;;;;;4974306;28;20086;-70
2022/09/22 01:28:57;;;;;;;2.28;1.45;;;10.10;99.80;;;;;;4973534;28;20034;-69
2022/09/22 01:31:38;;;;;;;5.90;1.85;;;10.10;99.90;;;;;;4974489;28;20038;-69
2022/09/22 01:34:31;;;;;;;5.63;2.20;;;10.00;99.90;;;;;;4974555;28;20026;-70
2022/09/22 01:37:09;;;;;;;2.42;1.52;;;10.00;99.90;;;;;;4957002;28;20085;-71
2022/09/22 01:39:50;;;;;;;1.90;1.60;;;10.00;99.90;;;;;;4973879;28;20031;-70
2022/09/22 01:42:26;;;;;;;2.40;1.73;;;10.00;99.90;;;;;;4970994;28;20429;-70
2022/09/22 01:44:58;;;;;;;2.90;1.67;;;9.90;99.90;;;;;;4954303;29;20523;-69
2022/09/22 01:47:39;;;;;;;2.20;1.80;;;9.90;99.90;;;;;;4954767;29;20389;-69
2022/09/22 01:50:12;;;;;;;2.25;1.67;;;9.90;99.90;;;;;;4954417;29;20074;-69
2022/09/22 01:52:40;;;;;;;2.75;2.00;;;9.90;99.90;;;;;;4954406;29;20091;-69
2022/09/22 01:55:15;;;;;;;1.95;1.63;;;9.90;99.90;;;;;;4954615;29;20032;-70
2022/09/22 01:58:07;;;;;;;2.35;1.42;;;9.90;99.90;;;;;;4954481;29;20042;-69
2022/09/22 02:00:38;;;;;;;2.20;1.60;;;9.90;99.90;;;;;;4954442;29;20372;-70
2022/09/22 02:03:10;;;;;;;2.20;1.60;;;9.80;99.90;;;;;;4953901;28;20078;-70
2022/09/22 02:06:03;;;;;;;2.80;1.73;;;9.80;99.90;;;;;;4954545;29;20260;-69
2022/09/22 02:08:51;;;;;;;1.90;1.60;;;9.80;99.90;;;;;;4946644;29;20050;-70
2022/09/22 02:11:16;;;;;;;2.63;1.75;;;9.80;99.90;;;;;;4954460;29;20031;-69
2022/09/22 02:13:43;;;;;;;6.78;2.53;;;9.70;99.90;;;;;;4954192;29;20448;-71
2022/09/22 02:16:11;;;;;;;1.95;1.75;;;9.70;99.90;;;;;;4954752;29;20054;-71
2022/09/22 02:18:45;;;;;;;2.58;1.95;;;9.70;99.90;;;;;;4954263;29;20397;-71
2022/09/22 02:21:12;;;;;;;4.40;2.00;;;9.70;99.90;;;;;;4954772;29;20027;-70
2022/09/22 02:23:38;;;;;;;3.22;1.90;;;9.70;99.90;;;;;;4954158;29;20038;-71
2022/09/22 02:26:07;;;;;;;4.65;1.73;;;9.70;99.90;;;;;;4954413;29;20402;-70
2022/09/22 02:28:35;;;;;;;2.70;1.77;;;9.60;99.90;;;;;;4954204;29;20027;-79
2022/09/22 02:31:02;;;;;;;4.20;1.80;;;9.60;99.90;;;;;;4954776;29;20377;-70
2022/09/22 02:33:32;;;;;;;2.47;1.92;;;9.60;99.90;;;;;;4954463;29;20391;-70
2022/09/22 02:36:09;;;;;;;2.70;2.05;;;9.60;99.90;;;;;;4954157;29;20027;-70
2022/09/22 02:39:04;;;;;;;4.70;1.60;;;9.60;99.90;;;;;;4954140;29;20040;-71
2022/09/22 02:41:56;;;;;;;2.47;1.60;;;9.60;99.90;;;;;;4933913;29;20059;-69
2022/09/22 02:44:45;;;;;;;2.40;1.83;;;9.60;99.90;;;;;;4954291;29;20546;-69
2022/09/22 02:47:31;;;;;;;3.35;2.20;;;9.60;99.90;;;;;;4954314;29;20465;-70
2022/09/22 02:49:58;;;;;;;2.47;1.73;;;9.60;99.90;;;;;;4953990;29;20043;-69
2022/09/22 02:52:24;;;;;;;3.28;1.90;;;9.60;99.90;;;;;;4954132;29;20039;-70
2022/09/22 02:54:52;;;;;;;3.35;1.92;;;9.60;99.90;;;;;;4954786;28;20027;-69
2022/09/22 02:57:19;;;;;;;2.65;1.90;;;9.60;99.90;;;;;;4971998;28;20023;-70
2022/09/22 02:59:44;;;;;;;3.10;2.25;;;9.60;99.90;;;;;;4972919;28;20086;-70
2022/09/22 03:02:10;;;;;;;7.80;2.45;;;9.60;99.90;;;;;;4973685;28;20035;-69
2022/09/22 03:04:36;;;;;;;4.75;2.67;;;9.70;99.90;;;;;;4973212;28;20074;-73
2022/09/22 03:07:02;;;;;;;2.95;1.80;;;9.70;99.90;;;;;;4973828;28;20460;-70
2022/09/22 03:09:27;;;;;;;4.53;2.10;;;9.70;99.90;;;;;;4973122;28;20442;-69
2022/09/22 03:11:53;;;;;;;4.07;2.05;;;9.80;99.90;;;;;;4973388;28;20040;-70
2022/09/22 03:14:18;;;;;;;3.65;2.15;;;9.80;99.90;;;;;;4975174;28;20023;-70
2022/09/22 03:16:44;;;;;;;3.00;1.52;;;9.80;99.90;;;;;;4977346;28;20027;-70
2022/09/22 03:19:10;;;;;;;3.30;2.15;;;9.90;99.90;;;;;;4978683;28;20498;-70
2022/09/22 03:21:37;;;;;;;4.00;1.92;;;9.90;99.90;;;;;;4978144;28;20110;-70
2022/09/22 03:24:02;;;;;;;2.63;2.00;;;9.90;99.90;;;;;;4976635;28;20608;-70
2022/09/22 03:26:28;;;;;;;3.65;2.13;;;10.00;99.90;;;;;;4977061;28;20109;-70
2022/09/22 03:28:54;;;;;;;5.68;2.10;;;10.00;99.90;;;;;;4976213;28;20092;-70
2022/09/22 03:31:19;;;;;;;3.17;2.00;;;10.00;99.90;;;;;;4976790;28;20046;-70
2022/09/22 03:33:45;;;;;;;4.05;2.58;;;10.10;99.90;;;;;;4976373;28;20034;-71
2022/09/22 03:36:12;;;;;;;2.67;2.00;;;10.10;99.90;;;;;;4977035;28;20038;-70
2022/09/22 03:38:38;;;;;;;3.60;2.10;;;10.10;99.90;;;;;;4976756;28;20026;-70
2022/09/22 03:41:04;;;;;;;2.95;2.05;;;10.10;99.90;;;;;;4976465;28;20356;-70
2022/09/22 03:43:30;;;;;;;6.57;2.97;;;10.10;99.90;;;;;;4972206;28;20137;-70
2022/09/22 03:46:00;;;;;;;2.85;2.03;;;10.10;99.90;;;;;;4995843;28;20113;-70
2022/09/22 03:48:27;;;;;;;2.97;2.25;;;10.20;99.90;;;;;;4978342;28;20022;-71
2022/09/22 03:50:57;;;;;;;2.97;1.88;;;10.20;99.90;;;;;;4995335;28;20538;-71
2022/09/22 03:53:23;;;;;;;2.70;1.92;;;10.10;99.90;;;;;;4995769;28;20030;-71
2022/09/22 03:55:50;;;;;;;4.22;2.20;;;10.20;99.90;;;;;;4995660;28;20081;-71
2022/09/22 03:58:18;;;;;;;3.15;1.95;;;10.10;99.90;;;;;;4995935;28;20047;-70
2022/09/22 04:00:44;;;;;;;3.55;2.25;;;10.10;99.90;;;;;;4995155;28;20060;-71
2022/09/22 04:03:11;;;;;;;2.33;1.95;;;10.10;99.90;;;;;;4995576;28;20094;-70
2022/09/22 04:05:37;;;;;;;3.60;1.90;;;10.10;99.90;;;;;;4995464;28;20117;-71
2022/09/22 04:08:02;;;;;;;8.15;2.28;;;10.10;99.90;;;;;;4994823;28;20405;-71
2022/09/22 04:10:28;;;;;;;2.95;2.20;;;10.10;99.90;;;;;;4995521;28;20034;-70
2022/09/22 04:12:54;;;;;;;2.53;2.00;;;10.10;99.90;;;;;;4994568;28;20034;-71
2022/09/22 04:15:19;;;;;;;3.00;1.90;;;10.10;99.90;;;;;;4995160;28;20065;-71
2022/09/22 04:17:45;;;;;;;3.03;1.95;;;10.10;99.90;;;;;;4994597;28;20052;-71
2022/09/22 04:20:11;;;;;;;2.78;1.95;;;10.10;99.90;;;;;;4995226;28;20081;-71
2022/09/22 04:22:37;;;;;;;2.40;1.90;;;10.10;99.90;;;;;;4994887;28;20037;-71
2022/09/22 04:25:04;;;;;;;3.35;1.85;;;10.10;99.90;;;;;;4976865;28;20030;-71
2022/09/22 04:27:30;;;;;;;4.13;1.77;;;10.10;99.90;;;;;;4995277;28;20034;-70
2022/09/22 04:29:56;;;;;;;1.75;1.60;;;10.10;99.90;;;;;;4994604;28;20044;-70
2022/09/22 04:32:22;;;;;;;3.05;1.90;;;10.10;99.90;;;;;;4994839;28;20070;-70
2022/09/22 04:34:48;;;;;;;2.75;1.60;;;10.10;99.90;;;;;;4994486;28;20034;-69
2022/09/22 04:37:13;;;;;;;2.90;1.85;;;10.10;99.90;;;;;;4993619;28;20043;-70
2022/09/22 04:39:39;;;;;;;4.57;1.90;;;10.00;99.90;;;;;;4993562;28;20033;-71
2022/09/22 04:42:07;;;;;;;1.83;1.60;;;10.00;99.90;;;;;;4990460;28;20371;-72
2022/09/22 04:44:33;;;;;;;2.42;1.73;;;10.00;99.90;;;;;;4972420;28;20511;-71
2022/09/22 04:46:59;;;;;;;3.50;1.83;;;10.00;99.90;;;;;;4972147;28;20026;-71
2022/09/22 04:49:24;;;;;;;3.55;1.95;;;10.00;99.90;;;;;;4971692;28;20027;-71
2022/09/22 04:51:50;;;;;;;2.00;1.75;;;10.00;99.90;;;;;;4956910;28;20491;-71
2022/09/22 04:54:15;;;;;;;4.70;2.33;;;10.00;99.90;;;;;;4975058;28;20037;-71
2022/09/22 04:56:41;;;;;;;3.45;2.00;;;10.00;99.90;;;;;;4975063;28;20030;-71
2022/09/22 04:59:07;;;;;;;2.78;1.90;;;9.90;99.90;;;;;;4974705;28;20105;-71
2022/09/22 05:01:33;;;;;;;5.13;2.00;;;9.90;99.90;;;;;;4975191;28;20026;-71
2022/09/22 05:03:59;;;;;;;3.58;2.20;;;9.90;99.90;;;;;;4974653;28;20038;-71
2022/09/22 05:06:25;;;;;;;2.35;2.10;;;9.90;99.90;;;;;;4974906;28;20054;-71
2022/09/22 05:08:50;;;;;;;2.55;1.60;;;9.80;99.90;;;;;;4974352;28;20100;-71
2022/09/22 05:11:18;;;;;;;3.10;1.98;;;9.80;99.90;;;;;;4974767;28;20464;-71
2022/09/22 05:13:43;;;;;;;2.40;2.00;;;9.90;99.90;;;;;;4974743;28;20121;-70
2022/09/22 05:16:09;;;;;;;2.85;2.10;;;9.90;99.90;;;;;;4974288;28;20086;-70
2022/09/22 05:18:35;;;;;;;2.40;1.75;;;9.80;99.90;;;;;;4974746;28;20432;-70
2022/09/22 05:21:01;;;;;;;2.60;1.67;;;9.80;99.90;;;;;;4957588;28;20511;-70
2022/09/22 05:23:27;;;;;;;3.75;2.13;;;9.80;99.90;;;;;;4974337;28;20102;-70
2022/09/22 05:25:53;;;;;;;3.90;2.13;;;9.80;99.90;;;;;;4971923;28;20027;-70
2022/09/22 05:28:21;;;;;;;2.90;2.33;;;9.80;99.90;;;;;;4973791;28;20435;-69
2022/09/22 05:30:49;;;;;;;3.03;2.33;;;9.80;99.90;;;;;;4974034;28;20038;-70
2022/09/22 05:33:15;;;;;;;4.88;2.80;;;9.80;99.90;;;;;;4974249;28;20118;-72
2022/09/22 05:35:41;;;;;;;3.72;2.40;;;9.80;99.90;;;;;;4974380;28;20109;-71
2022/09/22 05:38:06;;;;;;;2.65;2.00;;;9.90;99.90;;;;;;4973694;28;20400;-71
2022/09/22 05:40:32;;;;;;;8.00;2.28;;;9.90;99.90;;;;;;4973919;28;20026;-71
2022/09/22 05:42:57;;;;;;;2.95;2.08;;;9.90;99.90;;;;;;4982033;28;20046;-70
2022/09/22 05:45:24;;;;;;;3.03;2.03;;;10.00;99.90;;;;;;4993599;28;20050;-71
2022/09/22 05:47:50;;;;;;;2.50;2.00;;;10.00;99.90;;;;;;4993153;28;20534;-74
2022/09/22 05:50:19;;;;;;;2.15;1.80;;;10.00;99.90;;;;;;4993293;28;20046;-71
2022/09/22 05:52:44;;;;;;;3.40;2.13;;;10.10;99.90;;;;;;4993344;28;20109;-71
2022/09/22 05:55:11;;;;;;;4.10;2.15;;;10.10;99.90;;;;;;4993028;28;20109;-70
2022/09/22 05:57:37;;;;;;;2.97;2.15;;;10.20;99.90;;;;;;4993381;28;20382;-71
2022/09/22 06:00:06;;;;;;;2.50;2.15;;;10.20;99.90;;;;;;4981047;28;20030;-71
2022/09/22 06:02:32;;;;;;;4.32;2.72;;;10.30;99.90;;;;;;4973454;28;20031;-71
2022/09/22 06:04:57;;;;;;;7.97;2.55;;;10.30;99.90;;;;;;4956342;28;20118;-71
2022/09/22 06:07:24;;;;;;;4.75;2.33;;;10.40;99.90;;;;;;4956944;28;20035;-71
2022/09/22 06:09:49;;;;;;;3.63;2.65;;;10.50;99.90;;;;;;4974164;28;20039;-71
2022/09/22 06:12:16;;;;;;;5.50;2.70;;;10.60;99.90;;;;;;4956237;28;20097;-71
2022/09/22 06:14:42;;;;;;;5.60;2.15;;;10.60;99.90;;;;;;4974002;28;20035;-72
2022/09/22 06:17:11;;;;;;;8.40;2.50;;;10.70;99.90;;;;;;4973461;28;20093;-73
2022/09/22 06:19:38;;;;;;;3.53;2.35;;;10.80;99.90;;;;;;4973767;28;20109;-72
2022/09/22 06:22:04;;;;;;;2.50;2.13;;;10.90;99.90;;;;;;4973629;28;20166;-71
2022/09/22 06:24:30;;;;;;;6.55;2.45;;;11.00;99.90;;;;;;4973930;28;20101;-72
2022/09/22 06:26:56;;;;;;;5.20;2.38;;;11.00;99.90;;;;;;4956124;28;20062;-70
2022/09/22 06:29:21;;;;;;;3.90;2.60;;;11.10;99.90;;;;;;4974092;28;20383;-70
2022/09/22 06:31:48;;;;;;;3.88;2.30;;;11.10;99.90;;;;;;4973644;28;20086;-69
2022/09/22 06:34:14;;;;;;;3.92;2.22;;;11.10;99.90;;;;;;4973534;28;20452;-69
2022/09/22 06:36:44;;;;;;;4.78;2.30;;;11.20;99.90;;;;;;4974286;28;20121;-70
2022/09/22 06:39:10;;;;;;;3.78;2.30;;;11.20;99.90;;;;;;4973486;28;20039;-70
2022/09/22 06:41:36;;;;;;;4.57;2.17;;;11.30;99.90;;;;;;4973768;28;20467;-71
2022/09/22 06:44:04;;;;;;;4.45;2.85;;;11.30;99.90;;;;;;4973155;28;20066;-70
2022/09/22 06:46:32;;;;;;;3.75;2.28;;;11.30;99.90;;;;;;4974158;28;20066;-70
2022/09/22 06:48:58;;;;;;;4.47;2.45;;;11.40;99.90;;;;;;4974731;28;20052;-70
2022/09/22 06:51:29;;;;;;;3.45;2.22;;;11.40;99.60;;;;;;4959768;28;20471;-70
2022/09/22 06:53:55;;;;;;;3.63;2.40;;;11.50;99.60;;;;;;4977034;28;20019;-75
2022/09/22 06:56:24;;;;;;;3.70;2.50;;;11.50;99.50;;;;;;4977764;28;20042;-70
2022/09/22 06:58:51;;;;;;;4.60;2.60;;;11.60;99.30;;;;;;4977429;28;20023;-70
2022/09/22 07:01:18;;;;;;;5.20;2.03;;;11.70;99.50;;;;;;4959322;28;20482;-70
2022/09/22 07:03:44;;;;;;;5.35;2.08;;;11.90;99.20;;;;;;4977407;28;20029;-70
2022/09/22 07:06:16;;;;;;;4.32;2.10;;;12.20;99.10;;;;;;4976634;28;20031;-70
2022/09/22 07:08:43;;;;;;;3.63;2.20;;;12.50;98.40;;;;;;4977027;28;20038;-69
2022/09/22 07:11:09;;;;;;;2.92;2.20;;;12.80;98.00;;;;;;4958995;28;20039;-71
2022/09/22 07:13:37;;;;;;;3.17;2.10;;;13.20;95.90;;;;;;4976184;28;20031;-71
2022/09/22 07:16:16;;;;;;;5.53;2.28;;;13.60;95.70;;;;;;4976572;28;20035;-71
2022/09/22 07:18:47;;;;;;;4.43;2.20;;;14.20;94.60;;;;;;4977083;28;20098;-70
2022/09/22 07:21:15;;;;;;;4.30;1.98;;;14.70;92.80;;;;;;4976194;28;20026;-70
2022/09/22 07:23:42;;;;;;;3.60;1.98;;;15.30;91.50;;;;;;4976729;28;20475;-70
2022/09/22 07:26:12;;;;;;;3.08;1.80;;;15.50;89.00;;;;;;4976077;28;20034;-70
2022/09/22 07:28:38;;;;;;;3.28;1.60;;;16.20;84.60;;;;;;4976937;28;20490;-70
2022/09/22 07:31:06;;;;;;;3.47;1.60;;;17.10;82.70;;;;;;4975969;28;20042;-69
2022/09/22 07:33:35;;;;;;;2.95;1.52;;;17.80;75.90;;;;;;4977036;28;20035;-70
2022/09/22 07:36:06;;;;;;;4.88;1.80;;;18.50;71.70;;;;;;4976231;28;20031;-70
2022/09/22 07:38:35;;;;;;;;;;;18.80;68.70;;;;;;4977121;28;20033;-70
2022/09/22 07:41:02;;;;;;;3.15;2.00;;;20.00;67.90;;;;;;4976230;28;19906;-70
2022/09/22 07:43:29;;;;;;;2.20;1.50;;;21.10;64.10;;;;;;4988927;28;20050;-71
2022/09/22 07:45:56;;;;;;;4.25;1.70;;;21.90;60.90;;;;;;4995841;28;20038;-70
2022/09/22 07:48:36;;;;;;;3.53;1.80;;;22.10;55.40;;;;;;4995509;28;20066;-70
2022/09/22 07:51:04;;;;;;;3.95;1.70;;;21.80;56.00;;;;;;4995473;28;20030;-70
2022/09/22 07:53:30;;;;;;;4.18;1.50;;;21.50;57.10;;;;;;4995648;28;20069;-70
2022/09/22 07:56:02;;;;;;;2.35;1.52;;;20.60;56.30;;;;;;4995604;28;20030;-70
2022/09/22 07:58:29;;;;;;;3.80;1.80;;;20.10;58.20;;;;;;4995499;28;20027;-70
2022/09/22 08:00:54;;;;;;;2.97;1.55;;;19.30;59.80;;;;;;4994238;28;20065;-70
2022/09/22 08:03:20;;;;;;;2.67;1.88;;;19.00;61.70;;;;;;4995045;28;20071;-70
2022/09/22 08:05:48;;;;;;;5.15;1.42;;;18.70;61.80;;;;;;4995461;28;20451;-70
2022/09/22 08:08:13;;;;;;;3.28;1.63;;;18.50;63.10;;;;;;4994580;28;20463;-70
2022/09/22 08:10:39;;;;;;;2.17;1.55;;;18.50;64.00;;;;;;4995379;28;20034;-70
2022/09/22 08:13:05;;;;;;;1.77;1.25;;;18.80;63.50;;;;;;4995038;28;20045;-70
2022/09/22 08:15:30;;;;;;;2.67;1.40;;;18.70;62.20;;;;;;4995274;28;20034;-69
2022/09/22 08:18:02;;;;;;;2.53;1.63;;;18.50;62.30;;;;;;4995050;28;20483;-69
2022/09/22 08:20:28;;;;;;;3.38;1.63;;;18.20;63.70;;;;;;4995184;28;20035;-70
2022/09/22 08:23:01;;;;;;;3.58;1.98;;;17.90;64.40;;;;;;4995062;28;20034;-70
2022/09/22 08:25:27;;;;;;;1.75;1.42;;;17.70;65.30;;;;;;4995268;28;20022;-70
2022/09/22 08:27:53;;;;;;;2.97;1.50;;;17.60;66.90;;;;;;4994953;28;20026;-70
2022/09/22 08:30:18;;;;;;;2.67;1.27;;;17.60;66.70;;;;;;4994421;28;20034;-70
2022/09/22 08:32:45;;;;;;;2.58;1.50;;;17.60;68.00;;;;;;4995048;28;20477;-69
2022/09/22 08:35:11;;;;;;;1.95;1.60;;;17.50;68.20;;;;;;4994359;28;20093;-70
2022/09/22 08:37:36;;;;;;;3.97;1.83;;;17.50;69.00;;;;;;4994623;28;20022;-69
2022/09/22 08:40:04;;;;;;;5.53;1.70;;;17.70;67.30;;;;;;4994338;28;20030;-74
2022/09/22 08:42:32;;;;;;;2.40;1.77;;;18.00;66.10;;;;;;4979604;28;20468;-70
2022/09/22 08:45:30;;;;;;;3.28;1.45;;;18.20;65.50;;;;;;4975308;28;20502;-70
2022/09/22 08:53:47;;;;;;;2.17;1.50;;;18.40;64.50;;;;;;4974876;28;20090;-69
2022/09/22 08:56:47;;;;;;;2.28;1.52;;;18.40;63.90;;;;;;4974422;28;20118;-70
2022/09/22 08:59:22;;;;;;;2.10;1.20;;;18.20;63.80;;;;;;4974539;28;20042;-70
2022/09/22 09:02:15;;;;;;;2.00;1.50;;;18.10;64.30;;;;;;4974501;28;20480;-70
2022/09/22 09:05:15;;;;;;;2.60;1.60;;;18.20;65.40;;;;;;4974827;28;20483;-70
2022/09/22 09:07:58;;;;;;;2.83;1.40;;;18.00;64.50;;;;;;4974903;28;20117;-71
2022/09/22 09:10:47;;;;;;;1.60;1.30;;;17.90;65.30;;;;;;4974078;28;20090;-69
2022/09/22 09:13:59;;;;;;;6.07;1.48;;;17.90;66.00;;;;;;4966009;28;20043;-70
2022/09/22 09:16:32;;;;;;;1.75;1.40;;;17.70;64.70;;;;;;4974221;28;20439;-70
2022/09/22 09:19:33;;;;;;;5.18;1.25;;;17.50;65.90;;;;;;4975014;28;20030;-69
2022/09/22 09:22:11;;;;;;;3.35;1.40;;;17.40;65.70;;;;;;4974633;28;20037;-71
2022/09/22 09:24:44;;;;;;;1.45;1.10;;;17.30;66.00;;;;;;4974523;28;20114;-70
2022/09/22 09:27:18;;;;;;;3.83;1.15;;;17.20;66.70;;;;;;4974159;28;20066;-69
2022/09/22 09:30:00;;;;;;;3.08;1.60;;;17.20;67.00;;;;;;4974703;28;20127;-71
2022/09/22 09:32:42;;;;;;;3.65;2.72;;;17.30;67.30;;;;;;4974152;28;20105;-70
2022/09/22 09:35:13;;;;;;;5.30;2.88;;;17.30;68.00;;;;;;4974065;28;20123;-71
2022/09/22 09:37:42;;;;;;;4.50;2.78;;;17.40;68.50;;;;;;4974327;28;20504;-70
2022/09/22 09:40:14;;;;;;;11.48;4.90;;;17.40;67.40;;;;;;4974086;28;20035;-71
2022/09/22 09:42:42;;;;;;;7.47;3.25;;;17.40;68.70;;;;;;4980791;28;20042;-70
2022/09/22 09:45:13;;;;;;;5.88;2.42;;;17.70;69.40;;;;;;4993500;28;20109;-70
2022/09/22 09:47:51;;;;;;;;;;;17.80;66.90;;;;;;4994242;28;20114;-70
2022/09/22 09:50:18;;;;;;;2.60;1.90;;;17.60;67.00;;;;;;4993045;28;20360;-70
2022/09/22 09:52:44;;;;;;;2.25;1.70;;;17.70;67.00;;;;;;4993471;28;20039;-71
2022/09/22 09:55:26;;;;;;;2.13;1.30;;;17.80;67.20;;;;;;4993114;28;20400;-71
2022/09/22 09:58:02;;;;;;;2.40;1.50;;;17.80;65.60;;;;;;4993529;28;20060;-70
2022/09/22 10:00:31;;;;;;;3.45;1.83;;;17.70;66.10;;;;;;4992748;28;20030;-70
2022/09/22 10:03:25;;;;;;;3.47;2.20;;;17.70;67.00;;;;;;4993275;28;20034;-70
2022/09/22 10:06:06;;;;;;;2.83;1.85;;;17.80;67.90;;;;;;4993229;28;20470;-69
2022/09/22 10:08:44;;;;;;;1.83;1.60;;;17.80;66.60;;;;;;4992799;28;20026;-70
2022/09/22 10:11:11;;;;;;;2.40;1.90;;;17.80;67.80;;;;;;4992749;28;20049;-70
2022/09/22 10:13:39;;;;;;;2.10;1.55;;;17.70;66.50;;;;;;4993295;28;20030;-69
2022/09/22 10:16:24;;;;;;;6.40;1.67;;;17.80;67.80;;;;;;4993195;28;20026;-69
2022/09/22 10:19:19;;;;;;;3.38;1.80;;;17.90;68.00;;;;;;4993200;28;20062;-70
2022/09/22 10:21:45;;;;;;;2.05;1.60;;;18.10;67.50;;;;;;4986331;28;20478;-70
2022/09/22 10:24:31;;;;;;;2.10;1.80;;;18.20;66.10;;;;;;4994642;28;20035;-69
2022/09/22 10:26:57;;;;;;;2.78;1.42;;;18.20;67.10;;;;;;4997489;28;20031;-69
2022/09/22 10:29:24;;;;;;;2.63;1.88;;;18.10;66.60;;;;;;4997448;28;20056;-70
2022/09/22 10:31:59;;;;;;;3.20;1.73;;;18.10;64.80;;;;;;4997904;28;20035;-70
2022/09/22 10:34:39;;;;;;;2.72;1.48;;;18.30;65.10;;;;;;4996966;28;20041;-71
2022/09/22 10:37:09;;;;;;;1.88;1.70;;;18.50;65.60;;;;;;4997306;28;20042;-70
2022/09/22 10:39:56;;;;;;;2.20;1.50;;;18.50;66.00;;;;;;4996842;28;20109;-70
2022/09/22 10:42:33;;;;;;;1.40;1.30;;;18.50;65.70;;;;;;4996505;28;20050;-70
2022/09/22 10:45:05;;;;;;;1.30;1.17;;;18.70;65.30;;;;;;4996813;28;20356;-70
2022/09/22 10:47:50;;;;;;;2.40;1.35;;;18.70;62.80;;;;;;4996391;28;20046;-69
2022/09/22 10:50:37;;;;;;;3.85;1.40;;;18.80;61.30;;;;;;4996074;28;20034;-70
2022/09/22 10:53:25;;;;;;;1.83;1.25;;;18.90;60.40;;;;;;4996912;28;20089;-70
2022/09/22 10:56:16;;;;;;;6.57;1.50;;;18.90;61.10;;;;;;4996678;28;20037;-70
2022/09/22 10:58:45;;;;;;;2.05;1.30;;;18.70;60.40;;;;;;4996878;28;20064;-70
2022/09/22 11:01:38;;;;;;;2.88;1.83;;;18.50;61.00;;;;;;4996690;28;20426;-70
2022/09/22 11:04:37;;;;;;;1.92;1.30;;;18.50;62.40;;;;;;4996729;28;20070;-70
2022/09/22 11:13:43;;;;;;;1.70;1.20;;;18.00;61.70;;;;;;4995799;28;20045;-71
2022/09/22 11:16:38;;;;;;;1.85;1.20;;;17.60;63.10;;;;;;4996289;28;20033;-69
2022/09/22 11:19:25;;;;;;;1.85;1.05;;;17.50;63.80;;;;;;4978585;28;20033;-69
2022/09/22 11:22:14;;;;;;;2.10;1.00;;;17.40;64.30;;;;;;4996317;28;20026;-70
2022/09/22 11:25:05;;;;;;;1.83;1.10;;;17.30;63.60;;;;;;4996284;28;20026;-70
2022/09/22 11:27:32;;;;;;;;;;;17.10;63.20;;;;;;4996616;28;20110;-70
2022/09/22 11:30:21;;;;;;;1.73;1.10;;;17.10;64.10;;;;;;4995735;28;19917;-69
2022/09/22 11:33:30;;;;;;;3.15;1.50;;;16.90;65.20;;;;;;4990545;28;20046;-69
2022/09/22 11:36:07;;;;;;;3.05;1.08;;;16.80;65.60;;;;;;4996136;28;20030;-70
2022/09/22 11:39:11;;;;;;;3.53;1.20;;;16.80;66.30;;;;;;4995598;28;20026;-70
2022/09/22 11:42:07;;;;;;;2.17;1.02;;;16.90;66.60;;;;;;4995596;28;20101;-70
2022/09/22 11:45:14;;;;;;;1.17;1.00;;;17.10;67.00;;;;;;4995506;28;20061;-71
2022/09/22 11:48:01;;;;;;;1.85;1.10;;;17.30;65.90;;;;;;4995050;28;20459;-69
2022/09/22 11:50:38;;;;;;;1.30;0.95;;;17.40;66.40;;;;;;4995102;28;20030;-70
2022/09/22 11:53:42;;;;;;;4.63;1.48;;;17.60;66.20;;;;;;4995921;28;20122;-70
2022/09/22 11:56:17;;;;;;;2.03;1.30;;;17.80;65.10;;;;;;4962449;28;20078;-70
2022/09/22 11:58:44;;;;;;;2.13;1.67;;;17.80;62.90;;;;;;4995736;28;20032;-69
2022/09/22 12:01:16;;;;;;;1.50;1.20;;;17.90;64.30;;;;;;4995525;28;20042;-69
2022/09/22 12:03:49;;;;;;;5.05;0.98;;;18.10;64.30;;;;;;4995832;28;20069;-70
2022/09/22 12:06:20;;;;;;;3.35;1.23;;;18.10;64.90;;;;;;4978667;28;20093;-69
2022/09/22 12:08:56;;;;;;;1.80;1.10;;;18.00;63.10;;;;;;4995609;28;20022;-70
2022/09/22 12:11:25;;;;;;;1.17;1.00;;;17.90;61.70;;;;;;4994916;28;20030;-70
2022/09/22 12:13:52;;;;;;;2.45;0.90;;;17.90;63.40;;;;;;4995295;28;20054;-70
2022/09/22 12:16:47;;;;;;;1.55;1.10;;;17.90;64.00;;;;;;4994582;28;20097;-70
2022/09/22 12:19:16;;;;;;;1.92;0.93;;;17.80;63.40;;;;;;4995395;28;20537;-70
2022/09/22 12:22:03;;;;;;;1.08;0.98;;;17.80;64.70;;;;;;4994904;28;20037;-70
2022/09/22 12:24:31;;;;;;;3.08;1.13;;;17.70;63.00;;;;;;4994738;28;20026;-70
2022/09/22 12:26:57;;;;;;;1.20;0.98;;;17.70;62.40;;;;;;4995109;28;20054;-69
2022/09/22 12:29:29;;;;;;;1.20;1.02;;;17.70;61.20;;;;;;4977123;28;20066;-69
2022/09/22 12:31:57;;;;;;;1.95;0.90;;;17.70;60.90;;;;;;4994986;28;20085;-70
2022/09/22 12:34:32;;;;;;;1.13;0.82;;;17.70;61.10;;;;;;4994259;28;20379;-70
2022/09/22 12:37:11;;;;;;;4.38;1.00;;;17.80;61.10;;;;;;4995019;28;20041;-69
2022/09/22 12:39:40;;;;;;;1.30;1.00;;;17.80;61.30;;;;;;4994939;28;20073;-69
2022/09/22 12:42:32;;;;;;;1.50;1.00;;;17.70;61.80;;;;;;4994330;28;20026;-69
2022/09/22 12:45:32;;;;;;;1.65;1.05;;;17.80;60.40;;;;;;4986358;28;20034;-69
2022/09/22 12:48:01;;;;;;;1.27;1.00;;;17.70;60.90;;;;;;4982935;28;20050;-69
2022/09/22 12:50:42;;;;;;;2.22;0.90;;;17.60;60.90;;;;;;4976824;28;20034;-70
2022/09/22 12:53:27;;;;;;;0.80;0.80;;;17.60;59.50;;;;;;4994666;28;20466;-70
2022/09/22 12:55:56;;;;;;;2.50;1.10;;;17.60;60.00;;;;;;4987036;28;20070;-69
2022/09/22 12:58:22;;;;;;;4.38;0.90;;;17.60;59.20;;;;;;4974712;28;20035;-69
2022/09/22 13:01:15;;;;;;;1.02;0.90;;;17.70;60.10;;;;;;4974862;28;20033;-69
2022/09/22 13:03:51;;;;;;;1.30;0.80;;;17.60;57.90;;;;;;4974445;28;20069;-70
2022/09/22 13:06:22;;;;;;;1.58;0.88;;;17.60;57.60;;;;;;4974929;28;20034;-70
2022/09/22 13:08:51;;;;;;;0.88;0.80;;;17.60;56.60;;;;;;4974860;28;20031;-70
2022/09/22 13:11:17;;;;;;;2.17;0.98;;;17.50;57.20;;;;;;4974862;28;20058;-70
2022/09/22 13:13:42;;;;;;;2.65;1.00;;;17.40;58.20;;;;;;4986609;28;20471;-69
2022/09/22 13:16:14;;;;;;;2.15;0.90;;;17.40;58.90;;;;;;4994152;28;20049;-69
2022/09/22 13:18:58;;;;;;;1.23;0.93;;;17.30;58.90;;;;;;4993728;28;20442;-70
2022/09/22 13:21:26;;;;;;;2.35;0.80;;;17.30;58.60;;;;;;4993521;28;20533;-70
2022/09/22 13:23:57;;;;;;;1.67;1.10;;;17.20;59.10;;;;;;4976535;28;20113;-69
2022/09/22 13:26:33;;;;;;;1.38;0.90;;;17.20;59.30;;;;;;4993599;28;20027;-70
2022/09/22 13:29:16;;;;;;;1.10;1.00;;;17.10;61.00;;;;;;4993597;28;20030;-70
2022/09/22 13:31:42;;;;;;;2.17;1.10;;;17.10;62.00;;;;;;4993374;28;20030;-69